Airfield :
LOGIN :

Register | Disclaimer

   EN    FR    IT 

 










Legend :    VFR   Marginal VFR   IFR   Intensive IFR   Very Intensive IFR
Visi :
Ceiling :
>= 8 km
>= 3000ft
5 to 8 km
1000 to 3000 ft
1500m to 5 km
500 to 1000 ft
800 to 1500m
200 to 500 ft
< 800m
< 200 ft
Symbols :   Thunderstorms  Fog  Heavy snow  Heavy precipitations  Wind > 20 kt
SIGMETs :     Misc.  Thunderstorms  Icing  Turbulence  Mountain Waves  Volcanic Ashes







- Airport Elevation : 1079 ft


ETIK - Illesheim Air Base

CURRENT METAR :
  • 201356Z AUTO 28011KT 9999 OVC018 16/15 A2962 RMK AO2 OVC V BKN SLP030 T01640153 $

EXPIRED METARs :
  • 201256Z AUTO 26011KT 9999 BKN017 OVC026 16/16 A2962 RMK AO2 CIG 017V025 BKN V SCT SLP028 T01620159 $
  • 201156Z AUTO 25005KT 9999 BKN018 15/15 A2964 RMK AO2 SLP035 60001 70047 T01540154 10160 20132 53004 $
  • 201125Z AUTO 29006KT 9999 FEW010 BKN055 BKN070 15/15 A2965 RMK AO2 SLP039 $

TAF TAF ETIK
Valid from the 20 at 14:00 until the 21 at 20:00 UTC


201408Z 2014/2120 34009KT 8000 -SHRA BKN015 620802 QNH2959INS
TEMPO 2014/2018 5000 -TSRA BKN010CB
BECMG 2019/2020 34009KT 8000 -SHRA OVC008 620802 QNH2959INS
BECMG 2022/2023 30012G18KT 8000 -SHRA OVC015 620802 QNH2962INS
BECMG 2107/2108 29018G25KT 8000 -SHRA OVC015 620802 QNH3027INS TX18/2014Z TN11/2111Z
No reported NOTAMs for that airfield.
3 SIGMETs reported for the Langen FIR (EDGG) :
 
SIGMET 2  cancelation
EDGG SIGMET 4 VALID 201419/201500 EDZF
EDGG LANGEN FIR CNL SIGMET 2 201350/201500=
Embedded thunderstorms and hail
EDGG SIGMET 3 VALID 201415/201700 EDZF
EDGG LANGEN FIR EMBD TSGR OBS WI N5120 E01030 - N4927 E01057 - N4926 E00845 - N5120 E00846 - N5120 E01030 TOP FL360 MOV SSW 15KT NC=
SIGMET 2  CANCELED :
Frequent thunderstorms and hail
EDGG SIGMET 2 VALID 201350/201500 EDZF
EDGG LANGEN FIR FRQ TSGR OBS APRX 35NM WID LINE BTN N5119 E00933 - N4949 E01038 TOP FL320 MOV SSW 20KT NC=



MET'MAP, your aeronautical weather chart ! - Copyright ORBIFLY December 2007 - Disclaimer

ORBIFLY MET'MAP TEAM :

Programming & Development : Alexandra Zaïnal
Concept & Development : Baudouin d'Aumeries
Co-Development & Prog : Marc-Olivier Méhu
Technical & hardware support : Manuel Goepfert

Contact : metmap@orbifly.com




SOURCES & CREDITS :

   NOAA